createdAt,value
2019-02-24T00:01:57.663Z,10.03
2019-02-24T00:04:43.020Z,10.00
2019-02-24T00:07:23.464Z,12.00
2019-02-24T00:10:05.179Z,9.80
2019-02-24T00:12:46.963Z,10.63
2019-02-24T00:15:27.452Z,10.07
2019-02-24T00:18:08.747Z,9.13
2019-02-24T00:20:37.179Z,10.83
2019-02-24T00:26:19.219Z,9.23
2019-02-24T00:29:06.981Z,9.43
2019-02-24T00:31:54.760Z,9.60
2019-02-24T00:37:39.355Z,7.10
2019-02-24T00:40:27.147Z,8.27
2019-02-24T00:43:14.937Z,8.50
2019-02-24T00:46:22.841Z,8.40
2019-02-24T00:49:10.620Z,7.77
2019-02-24T01:00:46.353Z,6.90
2019-02-24T01:06:12.056Z,7.27
2019-02-24T01:14:10.911Z,6.00
2019-02-24T01:16:57.798Z,6.20
2019-02-24T01:19:45.795Z,6.33
2019-02-24T01:22:33.564Z,7.40
2019-02-24T01:25:21.329Z,5.40
2019-02-24T01:31:05.452Z,9.17
2019-02-24T01:33:53.380Z,5.97
2019-02-24T01:36:41.154Z,9.97
2019-02-24T01:39:28.915Z,6.43
2019-02-24T01:42:16.695Z,6.07
2019-02-24T01:45:05.436Z,8.90
2019-02-24T01:47:53.203Z,7.77
2019-02-24T01:50:40.968Z,8.53
2019-02-24T01:53:28.766Z,6.07
2019-02-24T01:56:11.612Z,6.03
2019-02-24T02:01:41.704Z,8.13
2019-02-24T02:04:22.432Z,7.17
2019-02-24T02:07:03.420Z,9.80
2019-02-24T02:09:43.599Z,7.93
2019-02-24T02:12:28.280Z,5.97
2019-02-24T02:15:08.529Z,5.13
2019-02-24T02:17:49.663Z,7.07
2019-02-24T02:26:00.849Z,6.27
2019-02-24T02:31:35.817Z,6.50
2019-02-24T02:34:17.384Z,5.83
2019-02-24T02:39:43.763Z,7.07
2019-02-24T02:42:24.150Z,6.87
2019-02-24T02:47:51.347Z,6.70
2019-02-24T02:50:31.918Z,7.90
2019-02-24T02:53:12.281Z,8.23
2019-02-24T02:55:54.172Z,6.97
2019-02-24T03:01:24.428Z,7.50
2019-02-24T03:06:53.339Z,7.23
2019-02-24T03:09:33.873Z,5.47
2019-02-24T03:12:14.614Z,6.20
2019-02-24T03:14:55.396Z,5.37
2019-02-24T03:17:36.168Z,5.03
2019-02-24T03:20:17.531Z,7.30
2019-02-24T03:22:59.617Z,5.77
2019-02-24T03:28:26.872Z,5.20
2019-02-24T03:31:07.694Z,4.40
2019-02-24T03:33:48.658Z,7.10
2019-02-24T03:36:29.771Z,5.43
2019-02-24T03:41:56.565Z,5.83
2019-02-24T03:47:28.756Z,6.87
2019-02-24T03:50:09.991Z,6.93
2019-02-24T03:55:33.140Z,5.77
2019-02-24T03:58:16.178Z,5.00
2019-02-24T04:00:56.452Z,6.27
2019-02-24T04:03:37.427Z,5.63
2019-02-24T04:06:18.119Z,6.53
2019-02-24T04:08:59.011Z,5.20
2019-02-24T04:11:40.059Z,5.07
2019-02-24T04:14:21.077Z,6.33
2019-02-24T04:17:01.696Z,5.27
2019-02-24T04:22:25.897Z,5.93
2019-02-24T04:25:06.918Z,5.20
2019-02-24T04:27:47.608Z,6.13
2019-02-24T04:30:28.359Z,7.27
2019-02-24T04:33:09.663Z,5.93
2019-02-24T04:35:50.247Z,7.57
2019-02-24T04:38:30.964Z,7.70
2019-02-24T04:41:15.260Z,5.73
2019-02-24T04:46:41.287Z,6.03
2019-02-24T04:49:23.276Z,5.43
2019-02-24T04:54:43.116Z,7.10
2019-02-24T04:57:11.561Z,4.73
2019-02-24T04:59:40.636Z,7.73
2019-02-24T05:02:09.078Z,6.53
2019-02-24T05:04:37.505Z,5.47
2019-02-24T05:07:05.935Z,6.17
2019-02-24T05:09:34.353Z,8.17
2019-02-24T05:12:02.777Z,8.67
2019-02-24T05:14:31.203Z,8.33
2019-02-24T05:16:59.631Z,8.67
2019-02-24T05:19:28.050Z,8.33
2019-02-24T05:21:56.473Z,6.67
2019-02-24T05:24:24.896Z,5.27
2019-02-24T05:26:53.316Z,6.77
2019-02-24T05:29:21.761Z,5.87
2019-02-24T05:31:50.184Z,7.73
2019-02-24T05:34:18.868Z,5.57
2019-02-24T05:36:47.312Z,6.00
2019-02-24T05:39:15.751Z,5.53
2019-02-24T05:41:44.184Z,5.57
2019-02-24T05:44:14.218Z,6.30
2019-02-24T05:46:42.866Z,7.63
2019-02-24T05:49:11.327Z,7.77
2019-02-24T05:51:39.764Z,6.53
2019-02-24T05:54:08.192Z,11.80
2019-02-24T05:56:37.300Z,8.00
2019-02-24T05:59:06.782Z,6.73
2019-02-24T06:01:35.421Z,7.03
2019-02-24T06:04:03.851Z,5.87
2019-02-24T06:06:32.284Z,6.73
2019-02-24T06:09:01.467Z,6.40
2019-02-24T06:11:29.882Z,8.67
2019-02-24T06:13:58.981Z,6.20
2019-02-24T06:16:27.417Z,7.33
2019-02-24T06:18:56.747Z,6.90
2019-02-24T06:21:25.187Z,5.93
2019-02-24T06:23:53.647Z,6.60
2019-02-24T06:26:22.132Z,5.43
2019-02-24T06:28:50.844Z,7.10
2019-02-24T06:31:20.261Z,6.60
2019-02-24T06:33:48.679Z,9.07
2019-02-24T06:36:18.070Z,7.37
2019-02-24T06:38:46.587Z,8.80
2019-02-24T06:41:15.366Z,6.80
2019-02-24T06:43:43.752Z,6.73
2019-02-24T06:46:12.222Z,5.63
2019-02-24T06:48:40.669Z,8.27
2019-02-24T06:51:10.920Z,7.87
2019-02-24T06:53:39.355Z,8.83
2019-02-24T06:56:09.835Z,6.50
2019-02-24T06:58:38.277Z,5.87
2019-02-24T07:01:06.704Z,7.60
2019-02-24T07:03:35.216Z,9.40
2019-02-24T07:06:03.637Z,7.83
2019-02-24T07:08:33.369Z,8.87
2019-02-24T07:11:03.305Z,7.77
2019-02-24T07:13:31.743Z,9.47
2019-02-24T07:16:01.196Z,9.90
2019-02-24T07:18:29.628Z,8.70
2019-02-24T07:20:58.109Z,10.40
2019-02-24T07:23:26.548Z,9.63
2019-02-24T07:25:54.980Z,10.33
2019-02-24T07:28:23.396Z,8.73
2019-02-24T07:30:51.819Z,8.57
2019-02-24T07:33:20.253Z,8.10
2019-02-24T07:35:48.679Z,10.97
2019-02-24T07:38:17.129Z,9.87
2019-02-24T07:40:45.619Z,11.67
2019-02-24T07:43:14.060Z,31.97
2019-02-24T07:45:42.489Z,22.07
2019-02-24T07:48:10.908Z,8.33
2019-02-24T07:50:39.322Z,7.97
2019-02-24T07:53:07.865Z,7.63
2019-02-24T07:55:37.282Z,10.27
2019-02-24T07:58:12.708Z,24.33
2019-02-24T08:00:41.129Z,9.90
2019-02-24T08:03:09.565Z,9.77
2019-02-24T08:05:37.980Z,8.13
2019-02-24T08:08:06.409Z,7.50
2019-02-24T08:10:36.570Z,8.33
2019-02-24T08:13:05.021Z,10.37
2019-02-24T08:15:33.477Z,9.27
2019-02-24T08:18:01.899Z,7.17
2019-02-24T08:20:30.320Z,8.17
2019-02-24T08:22:59.065Z,8.03
2019-02-24T08:25:27.475Z,7.10
2019-02-24T08:27:55.890Z,8.20
2019-02-24T08:30:24.324Z,8.63
2019-02-24T08:32:52.751Z,8.20
2019-02-24T08:35:21.371Z,6.70
2019-02-24T08:37:49.829Z,7.90
2019-02-24T08:40:18.249Z,7.20
2019-02-24T08:42:47.572Z,5.63
2019-02-24T08:45:15.983Z,8.17
2019-02-24T08:47:44.397Z,7.77
2019-02-24T08:50:13.504Z,9.80
2019-02-24T08:52:47.925Z,7.63
2019-02-24T08:55:16.338Z,7.30
2019-02-24T08:57:44.756Z,7.40
2019-02-24T09:00:15.595Z,7.53
2019-02-24T09:02:44.008Z,8.33
2019-02-24T09:05:12.456Z,7.37
2019-02-24T09:07:40.908Z,6.93
2019-02-24T09:10:09.808Z,8.23
2019-02-24T09:12:38.354Z,8.43
2019-02-24T09:15:10.008Z,7.57
2019-02-24T09:17:38.433Z,7.63
2019-02-24T09:20:10.089Z,7.77
2019-02-24T09:22:38.571Z,7.90
2019-02-24T09:25:08.167Z,6.87
2019-02-24T09:27:36.587Z,8.17
2019-02-24T09:30:08.131Z,8.17
2019-02-24T09:32:37.399Z,7.07
2019-02-24T09:35:07.185Z,6.37
2019-02-24T09:37:35.806Z,7.13
2019-02-24T09:40:07.168Z,8.60
2019-02-24T09:42:35.740Z,6.27
2019-02-24T09:45:06.207Z,4.40
2019-02-24T09:47:34.642Z,4.60
2019-02-24T09:50:03.354Z,6.43
2019-02-24T09:52:31.778Z,6.63
2019-02-24T09:55:00.247Z,6.40
2019-02-24T09:57:28.783Z,5.50
2019-02-24T09:59:57.476Z,4.93
2019-02-24T10:02:26.013Z,7.03
2019-02-24T10:04:54.471Z,7.53
2019-02-24T10:07:23.118Z,6.07
2019-02-24T10:09:51.919Z,6.90
2019-02-24T10:12:21.319Z,7.23
2019-02-24T10:14:49.766Z,5.97
2019-02-24T10:17:18.192Z,9.00
2019-02-24T10:19:47.519Z,5.87
2019-02-24T10:22:15.950Z,5.80
2019-02-24T10:24:44.398Z,5.63
2019-02-24T10:27:12.855Z,4.80
2019-02-24T10:29:41.262Z,6.23
2019-02-24T10:32:09.770Z,5.53
2019-02-24T10:34:38.170Z,6.13
2019-02-24T10:37:06.605Z,5.77
2019-02-24T10:39:35.017Z,5.50
2019-02-24T10:42:03.436Z,6.27
2019-02-24T10:44:31.911Z,5.40
2019-02-24T10:47:02.208Z,6.53
2019-02-24T10:49:30.480Z,5.47
2019-02-24T10:51:58.904Z,5.70
2019-02-24T10:54:27.319Z,6.00
2019-02-24T10:56:56.941Z,5.07
2019-02-24T10:59:25.339Z,5.03
2019-02-24T11:01:53.759Z,5.43
2019-02-24T11:04:22.436Z,4.87
2019-02-24T11:06:51.659Z,7.80
2019-02-24T11:09:20.999Z,4.90
2019-02-24T11:11:49.422Z,5.50
2019-02-24T11:14:17.858Z,5.10
2019-02-24T11:16:46.333Z,6.97
2019-02-24T11:19:14.753Z,4.97
2019-02-24T11:21:43.163Z,4.80
2019-02-24T11:24:11.604Z,3.67
2019-02-24T11:26:40.009Z,5.93
2019-02-24T11:29:08.422Z,6.47
2019-02-24T11:31:38.536Z,4.03
2019-02-24T11:34:08.043Z,4.93
2019-02-24T11:36:36.467Z,4.37
2019-02-24T11:39:05.820Z,4.90
2019-02-24T11:41:34.244Z,4.50
2019-02-24T11:44:02.662Z,5.87
2019-02-24T11:46:31.117Z,5.13
2019-02-24T11:48:59.634Z,5.40
2019-02-24T11:51:28.043Z,4.10
2019-02-24T11:53:56.489Z,3.87
2019-02-24T11:56:24.918Z,4.20
2019-02-24T11:58:53.764Z,3.97
2019-02-24T12:01:22.215Z,3.80
2019-02-24T12:03:50.676Z,5.93
2019-02-24T12:06:19.104Z,3.67
2019-02-24T12:08:48.703Z,5.37
2019-02-24T12:11:17.134Z,4.07
2019-02-24T12:13:45.604Z,3.13
2019-02-24T12:16:14.987Z,2.77
2019-02-24T12:18:43.488Z,4.27
2019-02-24T12:21:11.906Z,4.17
2019-02-24T12:23:41.387Z,3.57
2019-02-24T12:26:13.803Z,3.53
2019-02-24T12:28:42.240Z,3.90
2019-02-24T12:31:10.856Z,3.93
2019-02-24T12:33:39.266Z,3.73
2019-02-24T12:36:07.728Z,3.87
2019-02-24T12:38:36.217Z,4.13
2019-02-24T12:41:04.751Z,3.00
2019-02-24T12:43:33.400Z,3.53
2019-02-24T12:46:03.890Z,4.07
2019-02-24T12:48:32.309Z,3.80
2019-02-24T12:51:00.783Z,3.90
2019-02-24T12:53:29.449Z,4.23
2019-02-24T12:55:57.900Z,4.00
2019-02-24T12:58:26.312Z,5.23
2019-02-24T13:00:55.029Z,4.27
2019-02-24T13:03:24.227Z,3.40
2019-02-24T13:05:52.826Z,3.40
2019-02-24T13:08:21.261Z,3.63
2019-02-24T13:10:49.714Z,4.97
2019-02-24T13:13:19.041Z,3.73
2019-02-24T13:15:47.484Z,4.23
2019-02-24T13:18:15.911Z,2.80
2019-02-24T13:20:44.409Z,3.10
2019-02-24T13:23:13.038Z,4.40
2019-02-24T13:25:41.499Z,5.63
2019-02-24T13:28:09.909Z,3.10
2019-02-24T13:30:38.367Z,3.83
2019-02-24T13:33:07.570Z,3.23
2019-02-24T13:35:36.979Z,3.97
2019-02-24T13:38:08.991Z,3.40
2019-02-24T13:40:37.981Z,4.17
2019-02-24T13:43:06.398Z,3.30
2019-02-24T13:45:34.896Z,3.73
2019-02-24T13:48:03.307Z,4.17
2019-02-24T13:50:32.375Z,3.43
2019-02-24T13:53:00.847Z,3.33
2019-02-24T13:55:29.535Z,3.73
2019-02-24T13:57:58.489Z,2.77
2019-02-24T14:00:26.959Z,2.70
2019-02-24T14:02:55.495Z,2.60
2019-02-24T14:05:23.904Z,2.80
2019-02-24T14:07:52.333Z,2.23
2019-02-24T14:10:20.802Z,2.43
2019-02-24T14:12:49.247Z,3.03
2019-02-24T14:15:17.672Z,3.90
2019-02-24T14:17:46.113Z,2.87
2019-02-24T14:20:16.740Z,3.43
2019-02-24T14:22:45.182Z,2.40
2019-02-24T14:25:17.290Z,2.77
2019-02-24T14:27:45.702Z,2.50
2019-02-24T14:30:15.272Z,2.43
2019-02-24T14:32:44.374Z,2.40
2019-02-24T14:35:20.984Z,2.90
2019-02-24T14:37:49.566Z,3.10
2019-02-24T14:40:18.042Z,3.20
2019-02-24T14:42:46.537Z,2.07
2019-02-24T14:45:25.378Z,3.40
2019-02-24T14:47:53.869Z,2.63
2019-02-24T14:50:22.290Z,3.07
2019-02-24T14:52:50.735Z,2.57
2019-02-24T14:55:19.176Z,3.20
2019-02-24T14:57:47.618Z,2.83
2019-02-24T15:00:18.703Z,3.47
2019-02-24T15:02:47.242Z,3.43
2019-02-24T15:05:16.635Z,3.23
2019-02-24T15:07:45.409Z,3.07
2019-02-24T15:10:16.759Z,3.07
2019-02-24T15:12:45.188Z,2.67
2019-02-24T15:15:16.577Z,2.70
2019-02-24T15:17:45.007Z,4.53
2019-02-24T15:20:18.569Z,3.60
2019-02-24T15:22:47.561Z,3.33
2019-02-24T15:25:19.040Z,3.27
2019-02-24T15:27:47.710Z,4.17
2019-02-24T15:30:30.509Z,4.40
2019-02-24T15:32:58.938Z,4.07
2019-02-24T15:35:27.415Z,2.87
2019-02-24T15:37:55.927Z,2.90
2019-02-24T15:40:24.368Z,3.17
2019-02-24T15:42:52.876Z,3.40
2019-02-24T15:45:21.302Z,4.20
2019-02-24T15:47:49.748Z,5.07
2019-02-24T15:50:19.845Z,3.20
2019-02-24T15:52:49.301Z,2.83
2019-02-24T15:55:18.294Z,3.47
2019-02-24T15:57:46.748Z,4.20
2019-02-24T16:00:20.551Z,4.03
2019-02-24T16:02:49.226Z,3.07
2019-02-24T16:05:17.751Z,2.93
2019-02-24T16:07:46.407Z,3.87
2019-02-24T16:10:17.143Z,5.63
2019-02-24T16:12:47.323Z,3.40
2019-02-24T16:15:18.537Z,3.73
2019-02-24T16:17:47.624Z,4.67
2019-02-24T16:20:18.588Z,4.40
2019-02-24T16:22:47.015Z,3.37
2019-02-24T16:25:15.674Z,3.80
2019-02-24T16:27:44.099Z,3.87
2019-02-24T16:30:14.603Z,3.47
2019-02-24T16:32:43.013Z,3.37
2019-02-24T16:35:14.177Z,3.47
2019-02-24T16:37:43.271Z,4.50
2019-02-24T16:40:20.814Z,4.00
2019-02-24T16:42:50.003Z,4.13
2019-02-24T16:45:18.502Z,3.13
2019-02-24T16:47:46.932Z,3.00
2019-02-24T16:50:21.623Z,4.13
2019-02-24T16:52:50.793Z,4.33
2019-02-24T16:55:19.392Z,3.40
2019-02-24T16:57:47.816Z,3.37
2019-02-24T17:00:18.511Z,3.27
2019-02-24T17:02:46.945Z,3.50
2019-02-24T17:05:15.509Z,3.23
2019-02-24T17:07:44.285Z,3.83
2019-02-24T17:10:15.538Z,3.93
2019-02-24T17:12:44.279Z,3.27
2019-02-24T17:15:13.396Z,3.23
2019-02-24T17:17:42.249Z,3.37
2019-02-24T17:20:16.629Z,5.47
2019-02-24T17:22:45.388Z,3.67
2019-02-24T17:25:13.912Z,3.70
2019-02-24T17:27:42.367Z,5.47
2019-02-24T17:30:15.621Z,2.93
2019-02-24T17:32:44.224Z,5.00
2019-02-24T17:35:13.191Z,4.60
2019-02-24T17:37:41.607Z,3.20
2019-02-24T17:40:12.842Z,4.93
2019-02-24T17:42:42.023Z,4.10
2019-02-24T17:45:12.415Z,4.60
2019-02-24T17:47:40.917Z,3.27
2019-02-24T17:50:11.739Z,3.87
2019-02-24T17:52:40.482Z,3.77
2019-02-24T17:55:11.512Z,3.57
2019-02-24T17:57:39.949Z,3.20
2019-02-24T18:00:21.405Z,3.43
2019-02-24T18:02:51.693Z,4.57
2019-02-24T18:05:20.436Z,3.97
2019-02-24T18:07:48.890Z,3.63
2019-02-24T18:10:17.780Z,3.83
2019-02-24T18:12:47.117Z,4.00
2019-02-24T18:15:15.708Z,6.13
2019-02-24T18:17:44.154Z,3.47
2019-02-24T18:20:22.679Z,4.00
2019-02-24T18:22:51.682Z,3.67
2019-02-24T18:25:20.132Z,4.30
2019-02-24T18:27:49.406Z,2.87
2019-02-24T18:30:26.743Z,4.37
2019-02-24T18:32:56.350Z,3.33
2019-02-24T18:35:27.164Z,4.43
2019-02-24T18:37:55.678Z,4.83
2019-02-24T18:40:24.112Z,13.13
2019-02-24T18:42:59.767Z,3.80
2019-02-24T18:45:22.687Z,8.97
2019-02-24T18:47:51.194Z,5.13
2019-02-24T18:50:19.876Z,5.13
2019-02-24T18:52:48.580Z,3.87
2019-02-24T18:55:17.083Z,4.77
2019-02-24T18:57:45.491Z,4.17
2019-02-24T19:00:19.901Z,5.73
2019-02-24T19:02:48.349Z,3.73
2019-02-24T19:05:17.087Z,4.60
2019-02-24T19:07:45.513Z,3.87
2019-02-24T19:10:21.116Z,4.83
2019-02-24T19:12:50.159Z,5.27
2019-02-24T19:15:22.764Z,3.83
2019-02-24T19:17:51.255Z,5.63
2019-02-24T19:20:23.305Z,3.77
2019-02-24T19:22:51.731Z,4.40
2019-02-24T19:25:20.149Z,3.87
2019-02-24T19:27:49.215Z,6.10
2019-02-24T19:30:20.911Z,5.50
2019-02-24T19:32:49.484Z,6.37
2019-02-24T19:35:20.460Z,9.80
2019-02-24T19:37:48.996Z,6.67
2019-02-24T19:40:23.342Z,6.03
2019-02-24T19:42:51.776Z,8.27
2019-02-24T19:45:23.395Z,5.17
2019-02-24T19:47:51.824Z,4.87
2019-02-24T19:50:20.914Z,3.17
2019-02-24T19:52:49.324Z,4.97
2019-02-24T19:55:18.118Z,6.47
2019-02-24T19:57:46.540Z,5.10
2019-02-24T20:00:17.674Z,5.00
2019-02-24T20:02:46.083Z,4.53
2019-02-24T20:05:14.589Z,5.60
2019-02-24T20:07:43.711Z,4.57
2019-02-24T20:10:20.469Z,4.30
2019-02-24T20:12:48.906Z,5.40
2019-02-24T20:15:17.463Z,4.67
2019-02-24T20:17:46.136Z,7.40
2019-02-24T20:20:16.003Z,7.87
2019-02-24T20:22:45.789Z,6.03
2019-02-24T20:25:18.969Z,5.37
2019-02-24T20:27:48.391Z,6.17
2019-02-24T20:30:28.074Z,5.40
2019-02-24T20:32:56.487Z,5.10
2019-02-24T20:35:24.996Z,5.90
2019-02-24T20:37:53.404Z,5.47
2019-02-24T20:40:21.911Z,4.33
2019-02-24T20:42:50.322Z,5.13
2019-02-24T20:45:20.875Z,4.17
2019-02-24T20:47:49.452Z,5.93
2019-02-24T20:50:22.957Z,5.87
2019-02-24T20:52:51.436Z,7.63
2019-02-24T20:55:20.355Z,8.93
2019-02-24T20:57:48.963Z,9.87
2019-02-24T21:00:29.454Z,9.80
2019-02-24T21:02:58.771Z,7.87
2019-02-24T21:05:27.194Z,5.83
2019-02-24T21:07:55.630Z,7.47
2019-02-24T21:10:24.951Z,9.53
2019-02-24T21:12:53.377Z,7.97
2019-02-24T21:15:21.809Z,6.07
2019-02-24T21:17:50.231Z,6.70
2019-02-24T21:20:27.104Z,7.13
2019-02-24T21:22:55.560Z,6.60
2019-02-24T21:25:24.006Z,7.07
2019-02-24T21:27:52.415Z,5.97
2019-02-24T21:30:22.441Z,7.53
2019-02-24T21:32:50.882Z,7.00
2019-02-24T21:35:19.304Z,5.57
2019-02-24T21:37:47.735Z,7.27
2019-02-24T21:40:19.770Z,7.00
2019-02-24T21:42:48.242Z,7.63
2019-02-24T21:45:19.749Z,6.70
2019-02-24T21:47:48.163Z,7.83
2019-02-24T21:50:17.239Z,5.80
2019-02-24T21:52:45.721Z,6.37
2019-02-24T21:55:14.223Z,6.00
2019-02-24T21:57:42.714Z,7.27
2019-02-24T22:00:22.213Z,6.47
2019-02-24T22:02:50.614Z,6.67
2019-02-24T22:05:19.040Z,7.23
2019-02-24T22:07:47.455Z,6.30
2019-02-24T22:10:16.467Z,8.60
2019-02-24T22:12:44.875Z,8.03
2019-02-24T22:15:16.115Z,4.87
2019-02-24T22:17:44.527Z,6.70
2019-02-24T22:20:14.428Z,5.50
2019-02-24T22:22:42.852Z,7.00
2019-02-24T22:25:12.837Z,6.70
2019-02-24T22:27:41.346Z,6.10
2019-02-24T22:30:17.888Z,6.57
2019-02-24T22:32:46.371Z,6.67
2019-02-24T22:35:15.240Z,5.93
2019-02-24T22:37:43.775Z,5.83
2019-02-24T22:40:13.122Z,4.37
2019-02-24T22:42:41.627Z,5.33
2019-02-24T22:45:13.033Z,4.93
2019-02-24T22:47:42.520Z,5.70
2019-02-24T22:50:11.005Z,4.97
2019-02-24T22:52:39.422Z,4.70
2019-02-24T22:55:12.903Z,5.57
2019-02-24T22:57:41.324Z,6.03
2019-02-24T23:00:41.220Z,5.23
2019-02-24T23:03:09.850Z,6.07
2019-02-24T23:05:40.682Z,5.80
2019-02-24T23:08:09.128Z,5.27
2019-02-24T23:10:37.554Z,5.77
2019-02-24T23:13:06.056Z,7.20
2019-02-24T23:15:34.455Z,8.57
2019-02-24T23:18:02.883Z,6.63
2019-02-24T23:20:31.308Z,8.57
2019-02-24T23:22:59.773Z,6.30
2019-02-24T23:25:28.174Z,6.73
2019-02-24T23:27:56.631Z,7.20
2019-02-24T23:30:26.654Z,6.73
2019-02-24T23:32:56.683Z,6.47
2019-02-24T23:35:25.119Z,7.27
2019-02-24T23:37:56.016Z,7.63
2019-02-24T23:40:24.873Z,9.50
2019-02-24T23:42:53.308Z,7.37
2019-02-24T23:45:21.714Z,6.70
2019-02-24T23:47:50.170Z,7.73
2019-02-24T23:50:18.605Z,5.90
2019-02-24T23:52:49.660Z,5.40
2019-02-24T23:55:18.349Z,7.27
2019-02-24T23:57:47.430Z,8.90
